Aguanga, California
Current Conditions -  °F | °C
As of 7:55 PM on Tuesday 21 Oct 2014 (Local Time) from KF70 Reporting Station
Clear Clear  
Wind Chill: 66°   Ceiling: Unl
Heat Index: 66°   Visibility: 10mi
Dew Point: 57°   Wind: 3mph
Humidity: 73%   Direction: 140°SE
Pressure: 29.89"   Gusts: NA
Location:  33.44°N, 116.87°W
Report Text: KF70 220255Z AUTO 14003KT 10SM CLR 19/14 A2989 RMK AO1
Loading
Personal Weather Stations






























Interactive Weather Map
Tropical Storm Tracking
New forecast layout! Learn more

10-Day Weather Forecast

Advertisements
Track Severe Weather on mobile